createdAt,value
2017-10-23T00:00:10.104Z,11.77
2017-10-23T00:02:37.618Z,8.93
2017-10-23T00:05:05.153Z,11.75
2017-10-23T00:07:32.672Z,10.73
2017-10-23T00:10:00.176Z,11.73
2017-10-23T00:12:27.693Z,14.43
2017-10-23T00:14:55.982Z,12.95
2017-10-23T00:17:24.254Z,13.07
2017-10-23T00:19:52.528Z,10.65
2017-10-23T00:22:20.803Z,14.43
2017-10-23T00:24:49.081Z,11.15
2017-10-23T00:27:17.428Z,11.85
2017-10-23T00:29:44.963Z,11.20
2017-10-23T00:32:12.473Z,11.60
2017-10-23T00:34:40.748Z,10.82
2017-10-23T00:37:09.021Z,13.00
2017-10-23T00:39:37.336Z,11.40
2017-10-23T00:42:04.858Z,11.55
2017-10-23T00:44:32.366Z,12.00
2017-10-23T00:46:59.881Z,11.20
2017-10-23T00:49:28.183Z,14.85
2017-10-23T00:51:55.694Z,12.52
2017-10-23T00:54:23.366Z,12.63
2017-10-23T00:56:50.889Z,11.77
2017-10-23T00:59:18.420Z,11.90
2017-10-23T01:01:45.938Z,10.82
2017-10-23T01:04:13.492Z,9.52
2017-10-23T01:06:41.125Z,12.05
2017-10-23T01:09:08.653Z,11.68
2017-10-23T01:11:36.923Z,12.37
2017-10-23T01:14:05.228Z,11.23
2017-10-23T01:16:32.791Z,12.05
2017-10-23T01:19:00.318Z,13.93
2017-10-23T01:21:28.617Z,15.07
2017-10-23T01:23:56.131Z,14.13
2017-10-23T01:26:23.843Z,13.95
2017-10-23T01:28:51.356Z,13.75
2017-10-23T01:31:18.969Z,11.60
2017-10-23T01:33:46.501Z,11.50
2017-10-23T01:36:14.776Z,10.90
2017-10-23T01:38:43.062Z,10.05
2017-10-23T01:41:11.343Z,14.32
2017-10-23T01:43:38.862Z,12.00
2017-10-23T01:46:06.369Z,11.05
2017-10-23T01:48:33.896Z,12.52
2017-10-23T01:51:01.405Z,11.10
2017-10-23T01:53:28.912Z,10.43
2017-10-23T01:55:56.411Z,11.55
2017-10-23T01:58:24.077Z,15.27
2017-10-23T02:00:51.607Z,11.90
2017-10-23T02:03:19.883Z,11.25
2017-10-23T02:05:48.164Z,13.50
2017-10-23T02:08:16.445Z,10.82
2017-10-23T02:10:43.976Z,12.57
2017-10-23T02:13:11.473Z,10.30
2017-10-23T02:15:38.975Z,11.77
2017-10-23T02:18:06.489Z,12.23
2017-10-23T02:20:34.011Z,16.08
2017-10-23T02:23:01.524Z,12.00
2017-10-23T02:25:29.105Z,12.13
2017-10-23T02:27:56.644Z,13.63
2017-10-23T02:30:24.277Z,11.40
2017-10-23T02:32:51.869Z,14.80
2017-10-23T02:35:19.373Z,10.68
2017-10-23T02:37:46.900Z,12.98
2017-10-23T02:40:14.428Z,12.43
2017-10-23T02:42:41.968Z,14.35
2017-10-23T02:45:09.507Z,12.52
2017-10-23T02:47:37.026Z,11.48
2017-10-23T02:50:04.544Z,12.05
2017-10-23T02:52:32.085Z,9.35
2017-10-23T02:54:59.592Z,11.73
2017-10-23T02:57:27.109Z,11.32
2017-10-23T02:59:54.612Z,9.70
2017-10-23T03:02:22.133Z,10.40
2017-10-23T03:04:49.636Z,12.02
2017-10-23T03:07:17.150Z,11.52
2017-10-23T03:09:44.676Z,13.43
2017-10-23T03:12:12.211Z,10.68
2017-10-23T03:14:39.736Z,11.02
2017-10-23T03:17:08.024Z,8.70
2017-10-23T03:19:35.544Z,10.63
2017-10-23T03:22:03.057Z,9.10
2017-10-23T03:24:30.599Z,8.52
2017-10-23T03:26:58.107Z,8.97
2017-10-23T03:29:25.607Z,8.98
2017-10-23T03:31:53.118Z,10.87
2017-10-23T03:34:20.634Z,9.98
2017-10-23T03:36:48.914Z,10.07
2017-10-23T03:39:17.191Z,9.15
2017-10-23T03:41:44.727Z,9.60
2017-10-23T03:44:12.260Z,12.20
2017-10-23T03:46:39.767Z,9.18
2017-10-23T03:49:08.054Z,9.77
2017-10-23T03:51:36.333Z,9.90
2017-10-23T03:54:03.863Z,8.75
2017-10-23T03:56:31.470Z,10.90
2017-10-23T03:58:58.981Z,10.27
2017-10-23T04:01:26.519Z,9.68
2017-10-23T04:03:54.036Z,10.30
2017-10-23T04:06:21.549Z,10.20
2017-10-23T04:08:49.058Z,7.80
2017-10-23T04:11:16.581Z,10.50
2017-10-23T04:13:44.079Z,10.93
2017-10-23T04:16:11.602Z,10.63
2017-10-23T04:18:39.108Z,9.18
2017-10-23T04:21:06.615Z,16.92
2017-10-23T04:23:34.146Z,10.35
2017-10-23T04:26:02.435Z,11.52
2017-10-23T04:28:29.967Z,10.10
2017-10-23T04:30:57.478Z,12.70
2017-10-23T04:33:25.771Z,12.43
2017-10-23T04:35:53.288Z,11.35
2017-10-23T04:38:20.811Z,10.73
2017-10-23T04:40:48.331Z,9.80
2017-10-23T04:43:15.832Z,11.12
2017-10-23T04:45:43.377Z,10.23
2017-10-23T04:48:11.697Z,14.02
2017-10-23T04:50:39.197Z,10.70
2017-10-23T04:53:06.717Z,12.30
2017-10-23T04:55:34.369Z,13.02
2017-10-23T04:58:01.884Z,11.40
2017-10-23T05:00:30.190Z,10.55
2017-10-23T05:02:57.718Z,9.75
2017-10-23T05:05:26.253Z,13.85
2017-10-23T05:07:54.567Z,12.98
2017-10-23T05:10:22.852Z,12.63
2017-10-23T05:12:51.131Z,12.27
2017-10-23T05:15:19.422Z,12.27
2017-10-23T05:17:46.922Z,13.70
2017-10-23T05:20:14.433Z,12.83
2017-10-23T05:22:41.960Z,14.02
2017-10-23T05:25:09.488Z,12.43
2017-10-23T05:27:37.012Z,11.68
2017-10-23T05:30:04.560Z,12.68
2017-10-23T05:32:32.096Z,12.63
2017-10-23T05:35:00.646Z,11.90
2017-10-23T05:37:28.164Z,13.15
2017-10-23T05:39:56.475Z,14.02
2017-10-23T05:42:24.000Z,12.37
2017-10-23T05:44:52.268Z,13.83
2017-10-23T05:47:20.567Z,13.15
2017-10-23T05:49:48.084Z,11.68
2017-10-23T05:52:15.608Z,12.23
2017-10-23T05:54:43.133Z,11.68
2017-10-23T05:57:10.652Z,14.03
2017-10-23T05:59:38.182Z,12.27
2017-10-23T06:02:05.698Z,13.68
2017-10-23T06:04:33.250Z,12.30
2017-10-23T06:07:00.769Z,14.20
2017-10-23T06:09:28.275Z,12.05
2017-10-23T06:11:55.781Z,12.63
2017-10-23T06:14:23.310Z,12.80
2017-10-23T06:16:51.662Z,12.57
2017-10-23T06:19:19.196Z,13.85
2017-10-23T06:21:46.700Z,14.30
2017-10-23T06:24:14.973Z,16.35
2017-10-23T06:26:42.583Z,13.02
2017-10-23T06:29:10.092Z,14.23
2017-10-23T06:31:38.383Z,14.77
2017-10-23T06:34:06.652Z,14.38
2017-10-23T06:36:34.935Z,13.95
2017-10-23T06:39:03.252Z,13.07
2017-10-23T06:41:30.770Z,14.15
2017-10-23T06:43:58.326Z,14.35
2017-10-23T06:46:26.618Z,22.92
2017-10-23T06:48:54.915Z,12.90
2017-10-23T06:51:22.435Z,14.65
2017-10-23T06:53:49.968Z,14.30
2017-10-23T06:56:17.515Z,18.58
2017-10-23T06:58:45.031Z,18.17
2017-10-23T07:01:12.577Z,29.92
2017-10-23T07:03:40.947Z,14.65
2017-10-23T07:06:08.489Z,20.02
2017-10-23T07:08:36.115Z,15.20
2017-10-23T07:11:03.631Z,23.08
2017-10-23T07:13:31.162Z,26.75
2017-10-23T07:15:58.725Z,22.95
2017-10-23T07:18:26.321Z,22.67
2017-10-23T07:20:53.845Z,33.47
2017-10-23T07:23:21.348Z,32.08
2017-10-23T07:25:49.648Z,35.55
2017-10-23T07:28:17.195Z,21.50
2017-10-23T07:30:44.721Z,20.12
2017-10-23T07:33:12.239Z,17.48
2017-10-23T07:35:39.745Z,16.87
2017-10-23T07:38:07.270Z,17.67
2017-10-23T07:40:34.783Z,18.80
2017-10-23T07:43:03.089Z,23.92
2017-10-23T07:45:30.612Z,20.30
2017-10-23T07:47:58.128Z,18.25
2017-10-23T07:50:25.655Z,18.23
2017-10-23T07:52:53.180Z,16.27
2017-10-23T07:55:20.711Z,16.73
2017-10-23T07:57:48.341Z,17.80
2017-10-23T08:00:15.871Z,17.15
2017-10-23T08:02:44.157Z,16.65
2017-10-23T08:05:12.428Z,16.52
2017-10-23T08:07:39.989Z,18.67
2017-10-23T08:10:07.496Z,19.23
2017-10-23T08:12:35.061Z,17.45
2017-10-23T08:15:02.581Z,17.50
2017-10-23T08:17:30.091Z,18.75
2017-10-23T08:19:57.620Z,17.70
2017-10-23T08:22:25.131Z,16.48
2017-10-23T08:24:52.679Z,19.62
2017-10-23T08:27:20.176Z,17.17
2017-10-23T08:29:47.751Z,15.73
2017-10-23T08:32:15.269Z,16.87
2017-10-23T08:34:42.827Z,19.48
2017-10-23T08:37:10.360Z,15.23
2017-10-23T08:39:38.013Z,17.20
2017-10-23T08:42:05.525Z,16.70
2017-10-23T08:44:33.812Z,16.70
2017-10-23T08:47:01.583Z,16.50
2017-10-23T08:49:29.132Z,14.98
2017-10-23T08:51:57.431Z,14.85
2017-10-23T08:54:24.939Z,16.33
2017-10-23T08:56:52.449Z,13.32
2017-10-23T08:59:20.093Z,14.30
2017-10-23T09:01:47.615Z,16.48
2017-10-23T09:04:15.177Z,13.90
2017-10-23T09:06:42.709Z,14.63
2017-10-23T09:09:10.242Z,15.37
2017-10-23T09:11:37.777Z,19.12
2017-10-23T09:14:06.077Z,16.40
2017-10-23T09:16:33.707Z,16.45
2017-10-23T09:19:01.214Z,17.15
2017-10-23T09:21:28.752Z,16.17
2017-10-23T09:23:56.278Z,20.95
2017-10-23T09:26:23.808Z,14.40
2017-10-23T09:28:51.318Z,16.37
2017-10-23T09:31:19.609Z,16.90
2017-10-23T09:33:47.119Z,16.08
2017-10-23T09:36:14.671Z,15.30
2017-10-23T09:38:42.187Z,15.57
2017-10-23T09:41:09.729Z,15.73
2017-10-23T09:43:37.435Z,15.25
2017-10-23T09:46:04.952Z,14.35
2017-10-23T09:48:33.235Z,16.23
2017-10-23T09:51:01.547Z,18.77
2017-10-23T09:53:29.103Z,15.85
2017-10-23T09:55:56.620Z,13.13
2017-10-23T09:58:25.008Z,12.40
2017-10-23T10:00:52.541Z,10.23
2017-10-23T10:03:20.112Z,9.82
2017-10-23T10:05:47.623Z,10.07
2017-10-23T10:08:15.143Z,9.25
2017-10-23T10:10:43.395Z,10.68
2017-10-23T10:13:10.894Z,11.20
2017-10-23T10:15:39.186Z,10.40
2017-10-23T10:18:06.703Z,10.05
2017-10-23T10:20:34.258Z,7.62
2017-10-23T10:23:01.790Z,7.97
2017-10-23T10:25:29.286Z,8.95
2017-10-23T10:27:57.180Z,8.68
2017-10-23T10:30:24.873Z,7.80
2017-10-23T10:32:52.381Z,10.45
2017-10-23T10:35:20.705Z,8.65
2017-10-23T10:37:48.218Z,7.75
2017-10-23T10:40:16.487Z,6.75
2017-10-23T10:42:44.127Z,8.77
2017-10-23T10:45:11.752Z,7.05
2017-10-23T10:47:39.277Z,11.30
2017-10-23T10:50:06.802Z,9.45
2017-10-23T10:52:34.320Z,9.57
2017-10-23T10:55:01.847Z,11.55
2017-10-23T10:57:30.142Z,7.10
2017-10-23T10:59:58.421Z,7.62
2017-10-23T11:02:25.948Z,6.90
2017-10-23T11:04:53.480Z,6.32
2017-10-23T11:07:20.990Z,7.10
2017-10-23T11:09:49.272Z,7.75
2017-10-23T11:12:16.782Z,9.20
2017-10-23T11:14:44.287Z,7.30
2017-10-23T11:17:12.556Z,5.53
2017-10-23T11:19:40.871Z,6.28
2017-10-23T11:22:08.377Z,6.68
2017-10-23T11:24:35.893Z,5.87
2017-10-23T11:27:03.418Z,6.40
2017-10-23T11:29:31.700Z,6.70
2017-10-23T11:32:00.852Z,6.07
2017-10-23T11:34:28.348Z,6.57
2017-10-23T11:36:56.658Z,5.93
2017-10-23T11:39:25.023Z,6.07
2017-10-23T11:41:52.532Z,5.40
2017-10-23T11:44:20.057Z,7.45
2017-10-23T11:46:47.583Z,5.87
2017-10-23T11:49:15.874Z,5.45
2017-10-23T11:51:44.160Z,5.45
2017-10-23T11:54:11.733Z,6.70
2017-10-23T11:56:39.254Z,5.80
2017-10-23T11:59:07.544Z,6.65
2017-10-23T12:01:35.825Z,5.78
2017-10-23T12:04:04.103Z,5.93
2017-10-23T12:06:31.616Z,5.80
2017-10-23T12:08:59.141Z,6.33
2017-10-23T12:11:26.688Z,6.50
2017-10-23T12:13:54.220Z,6.23
2017-10-23T12:16:21.767Z,7.28
2017-10-23T12:18:49.313Z,6.67
2017-10-23T12:21:16.867Z,7.40
2017-10-23T12:23:44.393Z,7.53
2017-10-23T12:26:11.933Z,7.20
2017-10-23T12:28:39.442Z,7.83
2017-10-23T12:31:06.957Z,8.20
2017-10-23T12:33:34.465Z,8.10
2017-10-23T12:36:02.016Z,8.00
2017-10-23T12:38:29.544Z,9.73
2017-10-23T12:40:57.071Z,8.55
2017-10-23T12:43:24.582Z,9.13
2017-10-23T12:45:52.084Z,9.60
2017-10-23T12:48:19.721Z,9.93
2017-10-23T12:50:47.252Z,10.00
2017-10-23T12:53:14.780Z,9.63
2017-10-23T12:55:42.298Z,10.25
2017-10-23T12:58:09.812Z,11.20
2017-10-23T13:00:38.090Z,11.60
2017-10-23T13:03:05.599Z,12.37
2017-10-23T13:05:33.109Z,11.02
2017-10-23T13:08:00.750Z,12.07
2017-10-23T13:10:28.393Z,12.60
2017-10-23T13:12:55.899Z,12.68
2017-10-23T13:15:23.423Z,12.30
2017-10-23T13:17:50.995Z,13.77
2017-10-23T13:20:18.499Z,12.00
2017-10-23T13:22:46.013Z,13.50
2017-10-23T13:25:14.294Z,14.38
2017-10-23T13:27:42.594Z,13.73
2017-10-23T13:30:10.127Z,14.43
2017-10-23T13:32:38.596Z,14.60
2017-10-23T13:35:06.133Z,18.23
2017-10-23T13:37:33.765Z,16.13
2017-10-23T13:40:01.275Z,16.08
2017-10-23T13:42:31.961Z,15.80
2017-10-23T13:44:59.461Z,18.50
2017-10-23T13:47:27.051Z,18.07
2017-10-23T13:49:54.583Z,17.30
2017-10-23T13:52:22.179Z,17.00
2017-10-23T13:54:51.516Z,17.70
2017-10-23T13:57:19.170Z,17.40
2017-10-23T13:59:46.707Z,16.70
2017-10-23T14:02:14.218Z,18.23
2017-10-23T14:04:41.747Z,18.45
2017-10-23T14:07:09.249Z,18.87
2017-10-23T14:09:36.759Z,17.05
2017-10-23T14:12:04.277Z,21.62
2017-10-23T14:14:31.915Z,21.67
2017-10-23T14:16:59.439Z,20.00
2017-10-23T14:19:27.020Z,21.00
2017-10-23T14:21:54.523Z,22.48
2017-10-23T14:24:22.816Z,22.55
2017-10-23T14:26:50.338Z,20.48
2017-10-23T14:29:17.882Z,20.37
2017-10-23T14:31:45.392Z,21.48
2017-10-23T14:34:12.896Z,20.80
2017-10-23T14:36:40.537Z,19.80
2017-10-23T14:39:08.092Z,20.65
2017-10-23T14:41:35.675Z,23.23
2017-10-23T14:44:03.959Z,20.92
2017-10-23T14:46:31.479Z,20.58
2017-10-23T14:48:59.082Z,23.30
2017-10-23T14:51:26.680Z,19.90
2017-10-23T14:53:54.218Z,20.20
2017-10-23T14:56:21.742Z,20.17
2017-10-23T14:58:49.495Z,18.40
2017-10-23T15:01:17.015Z,18.62
2017-10-23T15:03:44.548Z,18.15
2017-10-23T15:06:12.060Z,17.80
2017-10-23T15:08:39.567Z,17.60
2017-10-23T15:11:07.092Z,18.92
2017-10-23T15:13:34.595Z,16.45
2017-10-23T15:16:02.109Z,17.30
2017-10-23T15:18:29.650Z,14.95
2017-10-23T15:20:57.180Z,16.42
2017-10-23T15:23:24.705Z,17.08
2017-10-23T15:25:52.227Z,16.33
2017-10-23T15:28:19.785Z,16.52
2017-10-23T15:30:48.095Z,17.25
2017-10-23T15:33:15.627Z,17.90
2017-10-23T15:35:43.919Z,18.95
2017-10-23T15:38:11.496Z,18.98
2017-10-23T15:40:39.041Z,21.02
2017-10-23T15:43:06.602Z,17.45
2017-10-23T15:45:34.133Z,16.60
2017-10-23T15:48:03.790Z,15.98
2017-10-23T15:50:32.252Z,15.68
2017-10-23T15:53:00.152Z,18.12
2017-10-23T15:55:27.723Z,15.40
2017-10-23T15:57:55.297Z,16.73
2017-10-23T16:00:22.850Z,17.90
2017-10-23T16:02:50.387Z,15.93
2017-10-23T16:05:17.896Z,19.85
2017-10-23T16:07:46.172Z,19.55
2017-10-23T16:10:14.657Z,20.00
2017-10-23T16:12:42.954Z,16.95
2017-10-23T16:15:10.543Z,16.10
2017-10-23T16:17:38.065Z,16.77
2017-10-23T16:20:05.614Z,15.90
2017-10-23T16:22:33.132Z,16.45
2017-10-23T16:25:00.665Z,19.48
2017-10-23T16:27:28.181Z,17.08
2017-10-23T16:29:56.495Z,16.60
2017-10-23T16:32:24.056Z,15.75
2017-10-23T16:34:51.596Z,16.12
2017-10-23T16:37:19.127Z,16.65
2017-10-23T16:39:46.630Z,15.93
2017-10-23T16:42:14.201Z,15.98
2017-10-23T16:44:42.440Z,16.87
2017-10-23T16:47:10.719Z,16.70
2017-10-23T16:49:38.285Z,19.05
2017-10-23T16:52:06.548Z,18.10
2017-10-23T16:54:34.820Z,18.35
2017-10-23T16:57:03.238Z,19.10
2017-10-23T16:59:30.736Z,18.77
2017-10-23T17:01:58.332Z,18.00
2017-10-23T17:04:25.853Z,18.80
2017-10-23T17:06:53.395Z,19.55
2017-10-23T17:09:20.895Z,18.00
2017-10-23T17:11:49.170Z,19.17
2017-10-23T17:14:16.810Z,18.20
2017-10-23T17:16:44.316Z,19.57
2017-10-23T17:19:11.937Z,18.65
2017-10-23T17:21:39.459Z,18.47
2017-10-23T17:24:07.029Z,18.60
2017-10-23T17:26:34.538Z,20.77
2017-10-23T17:29:02.042Z,20.88
2017-10-23T17:31:29.548Z,20.67
2017-10-23T17:33:57.052Z,20.75
2017-10-23T17:36:25.554Z,20.30
2017-10-23T17:38:53.068Z,20.58
2017-10-23T17:41:20.578Z,20.85
2017-10-23T17:43:48.123Z,22.42
2017-10-23T17:46:15.666Z,20.83
2017-10-23T17:48:43.246Z,22.23
2017-10-23T17:51:10.768Z,21.92
2017-10-23T17:53:39.087Z,21.83
2017-10-23T17:56:06.637Z,21.50
2017-10-23T17:58:34.157Z,34.67
2017-10-23T18:01:02.430Z,41.80
2017-10-23T18:03:29.932Z,63.40
2017-10-23T18:05:57.790Z,24.30
2017-10-23T18:08:25.298Z,73.70
2017-10-23T18:10:52.843Z,20.48
2017-10-23T18:13:20.498Z,20.55
2017-10-23T18:15:48.996Z,21.42
2017-10-23T18:18:16.584Z,20.95
2017-10-23T18:20:45.097Z,18.70
2017-10-23T18:23:12.687Z,20.83
2017-10-23T18:25:40.209Z,21.00
2017-10-23T18:28:07.748Z,21.73
2017-10-23T18:30:36.033Z,21.40
2017-10-23T18:33:03.580Z,26.25
2017-10-23T18:35:31.105Z,21.65
2017-10-23T18:37:58.838Z,20.70
2017-10-23T18:40:26.377Z,22.77
2017-10-23T18:42:54.663Z,21.85
2017-10-23T18:45:22.192Z,21.98
2017-10-23T18:47:49.720Z,21.37
2017-10-23T18:50:17.569Z,24.60
2017-10-23T18:52:45.120Z,22.45
2017-10-23T18:55:12.635Z,27.37
2017-10-23T18:57:40.158Z,27.67
2017-10-23T19:00:07.737Z,24.25
2017-10-23T19:02:35.260Z,29.08
2017-10-23T19:05:02.815Z,49.58
2017-10-23T19:07:30.363Z,22.52
2017-10-23T19:09:57.954Z,21.98
2017-10-23T19:12:25.493Z,24.20
2017-10-23T19:14:53.009Z,64.03
2017-10-23T19:17:20.559Z,34.42
2017-10-23T19:19:48.106Z,24.75
2017-10-23T19:22:15.647Z,23.27
2017-10-23T19:24:43.185Z,22.75
2017-10-23T19:27:10.808Z,21.50
2017-10-23T19:29:38.354Z,24.23
2017-10-23T19:32:05.881Z,24.63
2017-10-23T19:34:33.418Z,21.83
2017-10-23T19:37:00.943Z,23.58
2017-10-23T19:39:28.746Z,22.98
2017-10-23T19:41:56.317Z,23.77
2017-10-23T19:44:23.847Z,23.47
2017-10-23T19:46:52.136Z,23.50
2017-10-23T19:49:19.673Z,22.23
2017-10-23T19:51:47.220Z,22.65
2017-10-23T19:54:14.736Z,21.15
2017-10-23T19:56:42.280Z,22.50
2017-10-23T19:59:10.895Z,21.67
2017-10-23T20:01:38.407Z,22.05
2017-10-23T20:04:06.826Z,21.25
2017-10-23T20:06:34.348Z,22.13
2017-10-23T20:09:02.768Z,20.45
2017-10-23T20:11:30.360Z,20.60
2017-10-23T20:13:57.904Z,20.75
2017-10-23T20:16:25.429Z,21.25
2017-10-23T20:18:52.955Z,21.83
2017-10-23T20:21:20.498Z,22.05
2017-10-23T20:23:48.023Z,22.92
2017-10-23T20:26:15.858Z,22.00
2017-10-23T20:28:44.168Z,22.50
2017-10-23T20:31:11.677Z,21.55
2017-10-23T20:33:39.193Z,21.67
2017-10-23T20:36:07.835Z,22.30
2017-10-23T20:38:36.171Z,19.60
2017-10-23T20:41:03.691Z,18.33
2017-10-23T20:43:31.223Z,19.33
2017-10-23T20:45:58.930Z,20.50
2017-10-23T20:48:26.480Z,20.80
2017-10-23T20:50:54.168Z,21.70
2017-10-23T20:53:21.697Z,20.58
2017-10-23T20:55:49.237Z,21.75
2017-10-23T20:58:17.516Z,20.67
2017-10-23T21:00:45.978Z,20.90
2017-10-23T21:03:13.491Z,21.17
2017-10-23T21:05:41.052Z,21.58
2017-10-23T21:08:08.571Z,19.95
2017-10-23T21:10:36.860Z,20.90
2017-10-23T21:13:05.174Z,19.98
2017-10-23T21:15:32.683Z,20.20
2017-10-23T21:18:00.237Z,21.10
2017-10-23T21:20:27.749Z,19.65
2017-10-23T21:22:55.284Z,21.45
2017-10-23T21:25:23.587Z,20.23
2017-10-23T21:27:51.094Z,20.50
2017-10-23T21:30:19.406Z,24.40
2017-10-23T21:32:46.914Z,21.35
2017-10-23T21:35:14.426Z,21.35
2017-10-23T21:37:42.098Z,21.30
2017-10-23T21:40:09.697Z,21.62
2017-10-23T21:42:37.234Z,21.77
2017-10-23T21:45:04.757Z,20.08
2017-10-23T21:47:33.032Z,21.62
2017-10-23T21:50:01.327Z,21.80
2017-10-23T21:52:28.855Z,22.35
2017-10-23T21:54:57.138Z,22.25
2017-10-23T21:57:24.655Z,21.95
2017-10-23T21:59:52.171Z,23.97
2017-10-23T22:02:19.674Z,20.65
2017-10-23T22:04:47.219Z,60.65
2017-10-23T22:07:14.717Z,44.08
2017-10-23T22:09:42.236Z,32.28
2017-10-23T22:12:09.743Z,22.73
2017-10-23T22:14:37.288Z,23.50
2017-10-23T22:17:04.805Z,24.50
2017-10-23T22:19:32.330Z,24.42
2017-10-23T22:21:59.831Z,23.80
2017-10-23T22:24:27.364Z,22.98
2017-10-23T22:26:55.632Z,23.12
2017-10-23T22:29:23.896Z,23.12
2017-10-23T22:31:52.187Z,24.20
2017-10-23T22:34:20.463Z,24.25
2017-10-23T22:36:48.758Z,25.00
2017-10-23T22:39:16.253Z,24.87
2017-10-23T22:41:43.789Z,26.30
2017-10-23T22:44:11.343Z,25.27
2017-10-23T22:46:38.865Z,25.83
2017-10-23T22:49:06.390Z,26.52
2017-10-23T22:51:34.656Z,24.25
2017-10-23T22:54:02.209Z,24.92
2017-10-23T22:56:29.719Z,24.53
2017-10-23T22:58:57.255Z,24.98
2017-10-23T23:01:24.780Z,25.05
2017-10-23T23:03:52.543Z,27.17
2017-10-23T23:06:20.065Z,24.90
2017-10-23T23:08:48.346Z,26.35
2017-10-23T23:11:16.616Z,25.35
2017-10-23T23:13:44.150Z,26.92
2017-10-23T23:16:11.679Z,25.87
2017-10-23T23:18:39.313Z,26.37
2017-10-23T23:21:06.840Z,25.73
2017-10-23T23:23:34.342Z,26.33
2017-10-23T23:26:01.859Z,29.55
2017-10-23T23:28:29.402Z,34.00
2017-10-23T23:30:56.929Z,31.30
2017-10-23T23:33:24.433Z,29.27
2017-10-23T23:35:51.954Z,30.15
2017-10-23T23:38:19.462Z,30.00
2017-10-23T23:40:46.969Z,29.73
2017-10-23T23:43:14.481Z,27.65
2017-10-23T23:45:42.110Z,31.55
2017-10-23T23:48:09.640Z,28.12
2017-10-23T23:50:37.184Z,26.80
2017-10-23T23:53:05.512Z,22.58
2017-10-23T23:55:33.066Z,21.87
2017-10-23T23:58:00.590Z,22.33
